Time;durP1;ratioP1;P1;durP2;ratioP2;P2;SDS_P1;SDS_P2;PMS_P1;PMS_P2;Temp;Humidity;BMP_temperature;BMP_pressure;BME280_temperature;BME280_humidity;BME280_pressure;Samples;Min_cycle;Max_cycle;Signal;HPM_P1;HPM_P2
2022/07/22 00:00:42;;;;;;;966.22;879.47;;;21.50;99.90;;;;;;5026041;28;20906;-82
2022/07/22 00:03:09;;;;;;;962.10;875.58;;;21.50;99.90;;;;;;5010810;28;20223;-83
2022/07/22 00:05:35;;;;;;;964.50;877.72;;;21.50;99.90;;;;;;5013054;28;20200;-84
2022/07/22 00:08:02;;;;;;;960.22;873.72;;;21.50;99.90;;;;;;5015763;28;20199;-82
2022/07/22 00:10:29;;;;;;;958.95;872.35;;;21.50;99.90;;;;;;5032275;28;20201;-82
2022/07/22 00:12:56;;;;;;;965.63;879.13;;;21.50;99.90;;;;;;5031990;28;20203;-81
2022/07/22 00:15:22;;;;;;;959.75;873.40;;;21.50;99.90;;;;;;5027935;28;20226;-81
2022/07/22 00:17:50;;;;;;;960.00;873.22;;;21.50;99.90;;;;;;5027565;28;20211;-83
2022/07/22 00:20:19;;;;;;;956.38;869.70;;;21.50;99.90;;;;;;5031201;28;20206;-82
2022/07/22 00:22:45;;;;;;;970.05;883.05;;;21.50;99.90;;;;;;5017405;28;20203;-82
2022/07/22 00:25:13;;;;;;;962.42;875.90;;;21.40;99.90;;;;;;5013898;28;20218;-83
2022/07/22 00:27:39;;;;;;;962.45;875.85;;;21.40;99.90;;;;;;5019531;28;20594;-83
2022/07/22 00:30:07;;;;;;;955.75;869.30;;;21.40;99.90;;;;;;5018796;28;20214;-83
2022/07/22 00:32:34;;;;;;;956.33;869.95;;;21.40;99.90;;;;;;5016608;28;20219;-82
2022/07/22 00:35:02;;;;;;;949.47;863.30;;;21.40;99.90;;;;;;5013308;28;20714;-81
2022/07/22 00:37:29;;;;;;;947.78;861.60;;;21.40;99.90;;;;;;5024592;28;20207;-81
2022/07/22 00:39:56;;;;;;;951.55;865.28;;;21.40;99.90;;;;;;5028194;28;20566;-81
2022/07/22 00:42:23;;;;;;;961.03;873.92;;;21.40;99.90;;;;;;5023095;28;20204;-82
2022/07/22 00:44:50;;;;;;;968.40;881.50;;;21.40;99.90;;;;;;5036145;28;20207;-80
2022/07/22 00:47:16;;;;;;;954.47;867.80;;;21.40;99.90;;;;;;5028890;28;20664;-82
2022/07/22 00:49:43;;;;;;;959.45;872.75;;;21.30;99.90;;;;;;5027191;28;20284;-82
2022/07/22 00:52:12;;;;;;;962.50;875.53;;;21.30;99.90;;;;;;5018770;28;20642;-82
2022/07/22 00:54:39;;;;;;;948.92;862.47;;;21.30;99.90;;;;;;5027621;28;20667;-81
2022/07/22 00:57:06;;;;;;;955.08;868.25;;;21.30;99.90;;;;;;5033267;28;20566;-80
2022/07/22 00:59:33;;;;;;;954.80;868.10;;;21.30;99.90;;;;;;5027580;28;20666;-81
2022/07/22 01:02:00;;;;;;;951.25;864.50;;;21.30;99.90;;;;;;5020463;28;20683;-82
2022/07/22 01:04:27;;;;;;;952.17;865.40;;;21.30;99.90;;;;;;5019946;28;20199;-80
2022/07/22 01:06:54;;;;;;;953.72;866.90;;;21.30;99.90;;;;;;5014652;28;20647;-82
2022/07/22 01:09:22;;;;;;;960.67;873.83;;;21.30;99.90;;;;;;5020890;28;20628;-81
2022/07/22 01:11:49;;;;;;;960.60;873.95;;;21.30;99.90;;;;;;5035611;28;20199;-80
2022/07/22 01:14:16;;;;;;;944.72;858.50;;;21.20;99.90;;;;;;5030899;28;20224;-81
2022/07/22 01:16:42;;;;;;;947.08;860.58;;;21.20;99.90;;;;;;5028270;28;20208;-81
2022/07/22 01:19:09;;;;;;;945.72;859.45;;;21.20;99.90;;;;;;5024387;28;20215;-81
2022/07/22 01:21:38;;;;;;;933.80;847.55;;;21.20;99.90;;;;;;5015103;28;20196;-81
2022/07/22 01:24:05;;;;;;;952.20;865.38;;;21.20;99.90;;;;;;5026953;28;20570;-81
2022/07/22 01:26:33;;;;;;;936.17;850.20;;;21.20;99.90;;;;;;5014012;28;20213;-81
2022/07/22 01:29:00;;;;;;;950.17;863.80;;;21.20;99.90;;;;;;5016136;28;20206;-81
2022/07/22 01:31:27;;;;;;;945.88;859.15;;;21.20;99.90;;;;;;5016995;28;20202;-81
2022/07/22 01:33:54;;;;;;;941.25;854.88;;;21.20;99.90;;;;;;5022538;28;20667;-81
2022/07/22 01:36:21;;;;;;;951.92;865.35;;;21.20;99.90;;;;;;5015804;28;20223;-80
2022/07/22 01:38:49;;;;;;;942.47;856.33;;;21.10;99.90;;;;;;5030061;28;20211;-80
2022/07/22 01:41:16;;;;;;;946.38;860.10;;;21.10;99.90;;;;;;5030736;28;20651;-80
2022/07/22 01:43:43;;;;;;;940.65;854.55;;;21.10;99.90;;;;;;5017677;28;20201;-81
2022/07/22 01:46:10;;;;;;;945.47;859.28;;;21.10;99.90;;;;;;5028470;28;20210;-80
2022/07/22 01:48:37;;;;;;;948.95;862.58;;;21.10;99.90;;;;;;5023698;28;20205;-82
2022/07/22 01:51:04;;;;;;;934.10;848.00;;;21.10;99.90;;;;;;5030417;28;20213;-81
2022/07/22 01:53:31;;;;;;;954.03;867.33;;;21.10;99.90;;;;;;5016271;28;20202;-81
2022/07/22 01:55:59;;;;;;;937.08;850.90;;;21.10;99.90;;;;;;5041472;28;20230;-80
2022/07/22 01:58:26;;;;;;;958.67;871.72;;;21.10;99.90;;;;;;5027297;28;20206;-81
2022/07/22 02:00:53;;;;;;;932.13;846.00;;;21.00;99.90;;;;;;5022956;28;20559;-81
2022/07/22 02:03:20;;;;;;;935.83;849.75;;;21.10;99.90;;;;;;5033579;28;20222;-81
2022/07/22 02:05:47;;;;;;;947.20;860.72;;;21.10;99.90;;;;;;5017980;28;20203;-81
2022/07/22 02:08:14;;;;;;;948.55;862.05;;;21.00;99.90;;;;;;5022676;28;20264;-80
2022/07/22 02:10:41;;;;;;;931.53;845.42;;;21.00;99.90;;;;;;5037795;28;20199;-80
2022/07/22 02:13:10;;;;;;;945.33;859.03;;;21.00;99.90;;;;;;5023212;28;20199;-80
2022/07/22 02:15:37;;;;;;;932.30;846.50;;;21.00;99.90;;;;;;5030037;28;20588;-81
2022/07/22 02:18:11;;;;;;;935.92;850.22;;;21.00;99.90;;;;;;5021269;28;20193;-80
2022/07/22 02:20:38;;;;;;;921.53;836.13;;;21.00;99.90;;;;;;5021152;28;20203;-81
2022/07/22 02:23:04;;;;;;;925.65;840.05;;;21.00;99.90;;;;;;5027452;28;20204;-81
2022/07/22 02:25:31;;;;;;;917.67;832.55;;;21.00;99.90;;;;;;5037404;28;20202;-81
2022/07/22 02:27:58;;;;;;;927.40;841.58;;;20.90;99.90;;;;;;5015803;28;20558;-80
2022/07/22 02:30:26;;;;;;;944.08;857.97;;;20.90;99.90;;;;;;5017725;28;20217;-81
2022/07/22 02:32:53;;;;;;;937.25;851.40;;;20.90;99.90;;;;;;5033443;28;20208;-80
2022/07/22 02:35:19;;;;;;;938.13;852.05;;;20.90;99.90;;;;;;5034531;28;20231;-80
2022/07/22 02:37:46;;;;;;;942.30;856.20;;;20.90;99.90;;;;;;5032770;28;20225;-80
2022/07/22 02:40:13;;;;;;;930.00;844.33;;;20.90;99.90;;;;;;5013897;28;20198;-80
2022/07/22 02:42:40;;;;;;;928.92;843.35;;;20.90;99.90;;;;;;5023617;28;20575;-80
2022/07/22 02:45:08;;;;;;;919.08;833.55;;;20.90;99.90;;;;;;5039338;28;20207;-81
2022/07/22 02:47:36;;;;;;;931.50;845.90;;;20.90;99.90;;;;;;5022578;28;20548;-81
2022/07/22 02:50:06;;;;;;;926.38;840.78;;;20.90;99.90;;;;;;5020479;28;20205;-80
2022/07/22 02:52:33;;;;;;;922.08;836.47;;;20.80;99.90;;;;;;5034760;28;20209;-81
2022/07/22 02:55:00;;;;;;;931.85;846.08;;;20.80;99.90;;;;;;5015370;28;20218;-82
2022/07/22 02:57:26;;;;;;;938.38;852.42;;;20.90;99.90;;;;;;5028851;28;20208;-80
2022/07/22 02:59:53;;;;;;;918.15;832.88;;;20.80;99.90;;;;;;5037473;28;20644;-80
2022/07/22 03:02:20;;;;;;;929.63;844.03;;;20.90;99.90;;;;;;5015724;28;20220;-81
2022/07/22 03:04:48;;;;;;;927.55;842.15;;;20.80;99.90;;;;;;5017588;28;20649;-81
2022/07/22 03:07:14;;;;;;;916.72;831.28;;;20.80;99.90;;;;;;5032282;28;20212;-81
2022/07/22 03:09:41;;;;;;;932.08;846.53;;;20.80;99.90;;;;;;5025316;28;20193;-80
2022/07/22 03:12:08;;;;;;;931.97;846.53;;;20.80;99.90;;;;;;5023805;28;20197;-81
2022/07/22 03:14:35;;;;;;;925.45;840.03;;;20.80;99.90;;;;;;5044097;28;20250;-81
2022/07/22 03:17:02;;;;;;;931.88;846.20;;;20.80;99.90;;;;;;5013096;28;20198;-82
2022/07/22 03:19:29;;;;;;;933.65;847.95;;;20.80;99.90;;;;;;5013223;28;20237;-81
2022/07/22 03:21:57;;;;;;;922.13;836.75;;;20.80;99.90;;;;;;5028770;28;20206;-81
2022/07/22 03:24:24;;;;;;;908.47;823.55;;;20.80;99.90;;;;;;5029323;28;20202;-80
2022/07/22 03:26:51;;;;;;;929.60;843.70;;;20.70;99.90;;;;;;5036840;28;20662;-82
2022/07/22 03:29:17;;;;;;;921.13;835.85;;;20.70;99.90;;;;;;5025139;28;20205;-81
2022/07/22 03:31:44;;;;;;;931.83;846.17;;;20.80;99.90;;;;;;5028666;28;20208;-81
2022/07/22 03:34:11;;;;;;;932.67;846.95;;;20.70;99.90;;;;;;5038121;28;20204;-81
2022/07/22 03:36:37;;;;;;;916.85;831.45;;;20.70;99.90;;;;;;5024594;28;20588;-81
2022/07/22 03:39:06;;;;;;;926.65;840.95;;;20.70;99.90;;;;;;5037031;28;20198;-80
2022/07/22 03:41:33;;;;;;;919.67;833.97;;;20.70;99.90;;;;;;5021126;28;20206;-80
2022/07/22 03:44:00;;;;;;;925.42;839.70;;;20.70;99.90;;;;;;5032640;28;20207;-80
2022/07/22 03:46:26;;;;;;;925.45;839.75;;;20.70;99.90;;;;;;5034053;28;20574;-81
2022/07/22 03:48:53;;;;;;;926.35;840.58;;;20.70;99.90;;;;;;5039768;28;20208;-80
2022/07/22 03:51:21;;;;;;;913.40;828.05;;;20.70;99.90;;;;;;5034347;28;20209;-81
2022/07/22 03:53:48;;;;;;;929.20;843.20;;;20.70;99.90;;;;;;5040426;28;20687;-81
2022/07/22 03:56:16;;;;;;;912.53;827.17;;;20.60;99.90;;;;;;5020826;28;20226;-81
2022/07/22 03:58:43;;;;;;;929.65;843.85;;;20.60;99.90;;;;;;5020327;28;20202;-80
2022/07/22 04:01:10;;;;;;;929.83;843.78;;;20.60;99.90;;;;;;5016170;28;20563;-81
2022/07/22 04:03:36;;;;;;;919.65;834.20;;;20.60;99.90;;;;;;5016859;28;20232;-80
2022/07/22 04:06:03;;;;;;;927.50;841.83;;;20.60;99.90;;;;;;5036100;28;20195;-80
2022/07/22 04:08:30;;;;;;;907.65;822.40;;;20.60;99.90;;;;;;5032532;28;20292;-80
2022/07/22 04:10:57;;;;;;;933.33;847.53;;;20.60;99.90;;;;;;5014978;28;20226;-80
2022/07/22 04:13:25;;;;;;;917.05;831.53;;;20.60;99.90;;;;;;5027919;28;20224;-81
2022/07/22 04:15:52;;;;;;;926.03;840.22;;;20.60;99.90;;;;;;5025085;28;20717;-80
2022/07/22 04:18:18;;;;;;;916.25;831.05;;;20.60;99.90;;;;;;5023300;28;20205;-78
2022/07/22 04:20:46;;;;;;;915.33;829.97;;;20.60;99.90;;;;;;5024142;28;20675;-78
2022/07/22 04:23:13;;;;;;;905.20;820.15;;;20.60;99.90;;;;;;5031578;28;20229;-79
2022/07/22 04:25:40;;;;;;;916.70;831.22;;;20.60;99.90;;;;;;5032143;28;20207;-79
2022/07/22 04:28:07;;;;;;;903.50;818.42;;;20.50;99.90;;;;;;5025206;28;20637;-80
2022/07/22 04:30:35;;;;;;;927.65;841.60;;;20.50;99.90;;;;;;5033682;28;20201;-80
2022/07/22 04:33:02;;;;;;;916.40;830.92;;;20.50;99.90;;;;;;5027297;28;20202;-80
2022/07/22 04:35:30;;;;;;;912.25;827.05;;;20.50;99.90;;;;;;5026954;28;20229;-80
2022/07/22 04:37:56;;;;;;;908.17;822.92;;;20.50;99.90;;;;;;5034646;28;20205;-79
2022/07/22 04:40:23;;;;;;;913.15;827.58;;;20.50;99.90;;;;;;5027418;28;20240;-81
2022/07/22 04:42:50;;;;;;;911.78;826.38;;;20.50;99.90;;;;;;5023500;28;20203;-79
2022/07/22 04:45:17;;;;;;;917.25;831.78;;;20.50;99.90;;;;;;5027357;28;20206;-80
2022/07/22 04:47:45;;;;;;;908.40;823.08;;;20.50;99.90;;;;;;5023242;28;20214;-79
2022/07/22 04:50:12;;;;;;;897.03;812.25;;;20.50;99.90;;;;;;5023162;28;20192;-78
2022/07/22 04:52:39;;;;;;;909.72;824.45;;;20.50;99.90;;;;;;5025274;28;20199;-79
2022/07/22 04:55:07;;;;;;;902.50;817.33;;;20.50;99.90;;;;;;5032695;28;20201;-79
2022/07/22 04:57:33;;;;;;;911.60;826.13;;;20.50;99.90;;;;;;5025900;28;20211;-78
2022/07/22 05:00:00;;;;;;;909.78;824.13;;;20.50;99.90;;;;;;5038424;28;20192;-79
2022/07/22 05:02:27;;;;;;;907.80;822.63;;;20.50;99.90;;;;;;5026123;28;20653;-77
2022/07/22 05:04:55;;;;;;;915.25;829.90;;;20.50;99.90;;;;;;5025639;28;20195;-79
2022/07/22 05:07:22;;;;;;;895.75;811.20;;;20.50;99.90;;;;;;5022048;28;20196;-79
2022/07/22 05:09:48;;;;;;;915.53;830.13;;;20.50;99.90;;;;;;5028672;28;20656;-79
2022/07/22 05:12:15;;;;;;;909.95;824.78;;;20.50;99.90;;;;;;5015993;28;20207;-79
2022/07/22 05:14:42;;;;;;;902.13;817.28;;;20.50;99.90;;;;;;5024613;28;20202;-79
2022/07/22 05:17:10;;;;;;;907.45;822.88;;;20.50;99.90;;;;;;5019017;28;20579;-79
2022/07/22 05:19:39;;;;;;;895.30;811.05;;;20.40;99.90;;;;;;5020349;28;20644;-79
2022/07/22 05:22:07;;;;;;;900.08;815.78;;;20.40;99.90;;;;;;5023498;28;20208;-79
2022/07/22 05:24:34;;;;;;;897.72;813.00;;;20.40;99.90;;;;;;5029417;28;20334;-79
2022/07/22 05:27:01;;;;;;;900.97;816.65;;;20.40;99.90;;;;;;5021063;28;20221;-77
2022/07/22 05:29:27;;;;;;;903.83;819.30;;;20.40;99.90;;;;;;5016549;28;20205;-78
2022/07/22 05:31:54;;;;;;;885.80;801.65;;;20.40;99.90;;;;;;5027858;28;20211;-80
2022/07/22 05:34:21;;;;;;;907.40;822.72;;;20.40;99.90;;;;;;5028695;28;20203;-78
2022/07/22 05:36:48;;;;;;;908.92;824.08;;;20.40;99.90;;;;;;5027432;28;20232;-79
2022/07/22 05:39:16;;;;;;;888.28;804.17;;;20.40;99.90;;;;;;5035028;28;20673;-79
2022/07/22 05:41:42;;;;;;;879.38;795.30;;;20.40;99.90;;;;;;5036258;28;20204;-79
2022/07/22 05:44:09;;;;;;;900.88;815.97;;;20.40;99.90;;;;;;5030624;28;20197;-79
2022/07/22 05:46:36;;;;;;;902.58;818.00;;;20.30;99.90;;;;;;5020655;28;20217;-79
2022/07/22 05:49:03;;;;;;;891.22;806.83;;;20.30;99.90;;;;;;5019994;28;20210;-80
2022/07/22 05:51:30;;;;;;;892.97;808.90;;;20.30;99.90;;;;;;5028621;28;20676;-80
2022/07/22 05:53:57;;;;;;;886.53;802.40;;;20.30;99.90;;;;;;5037795;28;20209;-79
2022/07/22 05:56:25;;;;;;;897.60;812.88;;;20.30;99.90;;;;;;5032643;28;20225;-79
2022/07/22 05:58:51;;;;;;;887.63;803.05;;;20.30;99.90;;;;;;5022880;28;20591;-80
2022/07/22 06:01:18;;;;;;;889.90;805.47;;;20.30;99.90;;;;;;5010325;28;20202;-80
2022/07/22 06:03:45;;;;;;;869.60;786.00;;;20.30;99.90;;;;;;5016205;28;20612;-79
2022/07/22 06:06:11;;;;;;;890.85;806.13;;;20.30;99.90;;;;;;5022736;28;20691;-79
2022/07/22 06:08:38;;;;;;;907.65;822.75;;;20.30;99.90;;;;;;5020377;28;20204;-79
2022/07/22 06:11:05;;;;;;;885.90;801.67;;;20.30;99.90;;;;;;5031373;28;20208;-80
2022/07/22 06:13:33;;;;;;;898.85;814.20;;;20.30;99.90;;;;;;5027850;28;20204;-79
2022/07/22 06:16:00;;;;;;;906.60;821.80;;;20.30;99.90;;;;;;5023639;28;20212;-79
2022/07/22 06:18:27;;;;;;;903.30;818.40;;;20.30;99.90;;;;;;5019872;28;20201;-79
2022/07/22 06:20:54;;;;;;;881.88;797.55;;;20.30;99.90;;;;;;5018124;28;20214;-81
2022/07/22 06:23:23;;;;;;;889.30;805.15;;;20.30;99.90;;;;;;5027547;28;20211;-79
2022/07/22 06:25:50;;;;;;;882.28;798.22;;;20.30;99.90;;;;;;5028296;28;20689;-81
2022/07/22 06:28:17;;;;;;;899.25;814.35;;;20.30;99.90;;;;;;5022608;28;20195;-80
2022/07/22 06:30:45;;;;;;;899.58;814.97;;;20.40;99.90;;;;;;5028918;28;21420;-81
2022/07/22 06:33:12;;;;;;;894.85;810.25;;;20.40;99.90;;;;;;5025000;28;20202;-78
2022/07/22 06:35:40;;;;;;;894.95;810.55;;;20.40;99.90;;;;;;5018004;28;20235;-80
2022/07/22 06:38:07;;;;;;;911.05;825.75;;;20.40;99.90;;;;;;5037178;28;20201;-80
2022/07/22 06:40:34;;;;;;;893.10;808.88;;;20.40;99.90;;;;;;5019002;28;20205;-81
2022/07/22 06:43:01;;;;;;;892.97;808.63;;;20.40;99.90;;;;;;5023519;28;20663;-80
2022/07/22 06:45:28;;;;;;;901.45;816.75;;;20.40;99.90;;;;;;5013308;28;20201;-80
2022/07/22 06:47:57;;;;;;;894.30;809.80;;;20.40;99.90;;;;;;5029485;28;20206;-79
2022/07/22 06:50:24;;;;;;;889.38;805.03;;;20.50;99.90;;;;;;5027794;28;20211;-80
2022/07/22 06:52:51;;;;;;;908.22;823.13;;;20.50;99.90;;;;;;5029133;28;20211;-80
2022/07/22 06:55:18;;;;;;;910.05;825.20;;;20.50;99.90;;;;;;5027872;28;20202;-80
2022/07/22 06:57:44;;;;;;;898.42;813.75;;;20.50;99.90;;;;;;5033085;28;20228;-80
2022/07/22 07:00:12;;;;;;;908.72;823.65;;;20.50;99.90;;;;;;5020560;28;20306;-80
2022/07/22 07:02:39;;;;;;;898.55;814.10;;;20.50;99.90;;;;;;5018474;28;20224;-80
2022/07/22 07:05:08;;;;;;;911.47;826.28;;;20.50;99.90;;;;;;5024446;28;20471;-79
2022/07/22 07:07:35;;;;;;;911.00;826.13;;;20.60;99.90;;;;;;5014069;28;20196;-79
2022/07/22 07:10:01;;;;;;;898.08;813.70;;;20.60;99.90;;;;;;5027549;28;20196;-80
2022/07/22 07:12:28;;;;;;;910.45;825.42;;;20.60;99.90;;;;;;5016422;28;20197;-80
2022/07/22 07:14:55;;;;;;;899.17;814.75;;;20.60;99.90;;;;;;5017196;28;20204;-81
2022/07/22 07:17:23;;;;;;;912.80;827.80;;;20.60;99.90;;;;;;5037207;28;20232;-80
2022/07/22 07:19:50;;;;;;;898.90;814.35;;;20.70;99.90;;;;;;5021608;28;20204;-80
2022/07/22 07:22:18;;;;;;;902.55;817.75;;;20.70;99.90;;;;;;5041373;28;20207;-79
2022/07/22 07:24:45;;;;;;;908.28;823.47;;;20.70;99.90;;;;;;5021955;28;20197;-79
2022/07/22 07:27:12;;;;;;;897.03;812.58;;;20.70;99.90;;;;;;5017731;28;20669;-80
2022/07/22 07:29:38;;;;;;;917.85;832.60;;;20.70;99.90;;;;;;5017814;28;20198;-79
2022/07/22 07:32:06;;;;;;;912.95;827.97;;;20.80;99.90;;;;;;5014311;28;20668;-80
2022/07/22 07:34:32;;;;;;;922.13;837.08;;;20.80;99.90;;;;;;5016810;28;20206;-79
2022/07/22 07:36:59;;;;;;;909.15;823.85;;;20.70;99.90;;;;;;5013872;28;20231;-79
2022/07/22 07:39:27;;;;;;;905.17;820.20;;;20.80;99.90;;;;;;5018174;28;20214;-79
2022/07/22 07:41:55;;;;;;;914.20;829.10;;;20.70;99.90;;;;;;5022685;28;20205;-81
2022/07/22 07:44:22;;;;;;;916.50;831.20;;;20.70;99.90;;;;;;5021878;28;20205;-80
2022/07/22 07:46:48;;;;;;;906.20;821.28;;;20.70;99.90;;;;;;5018479;28;20204;-80
2022/07/22 07:49:15;;;;;;;908.50;823.15;;;20.70;99.90;;;;;;5017432;28;20215;-81
2022/07/22 07:51:42;;;;;;;918.95;833.58;;;20.70;99.90;;;;;;5018161;28;20202;-81
2022/07/22 07:54:09;;;;;;;922.20;836.22;;;20.70;99.90;;;;;;5014805;28;20207;-81
2022/07/22 07:56:37;;;;;;;906.22;821.15;;;20.70;99.90;;;;;;5021579;28;20241;-80
2022/07/22 07:59:04;;;;;;;905.30;820.65;;;20.60;99.90;;;;;;5022979;28;20204;-80
2022/07/22 08:01:31;;;;;;;900.35;815.55;;;20.70;99.90;;;;;;5014862;28;20642;-80
2022/07/22 08:03:58;;;;;;;921.58;836.10;;;20.60;99.90;;;;;;5018781;28;20204;-82
2022/07/22 08:06:24;;;;;;;926.00;840.22;;;20.70;99.90;;;;;;5016228;28;20206;-81
2022/07/22 08:08:51;;;;;;;918.38;832.90;;;20.60;99.90;;;;;;5022481;28;20212;-81
2022/07/22 08:11:19;;;;;;;922.22;836.63;;;20.60;99.90;;;;;;5023448;28;20645;-84
2022/07/22 08:13:47;;;;;;;916.42;831.15;;;20.60;99.90;;;;;;5017861;28;20202;-81
2022/07/22 08:16:14;;;;;;;911.75;826.58;;;20.60;99.90;;;;;;5014885;28;20213;-80
2022/07/22 08:18:41;;;;;;;891.45;806.80;;;20.60;99.90;;;;;;5012600;28;20653;-80
2022/07/22 08:21:07;;;;;;;897.10;812.45;;;20.60;99.90;;;;;;5013652;28;20206;-80
2022/07/22 08:23:35;;;;;;;905.90;820.88;;;20.70;99.90;;;;;;5019111;28;20209;-79
2022/07/22 08:26:01;;;;;;;914.22;829.03;;;20.70;99.90;;;;;;5017455;28;20553;-79
2022/07/22 08:28:28;;;;;;;920.58;835.33;;;20.70;99.90;;;;;;5031131;28;20567;-79
2022/07/22 08:30:56;;;;;;;890.22;805.67;;;20.70;99.90;;;;;;5032066;28;20223;-80
2022/07/22 08:33:23;;;;;;;906.50;821.63;;;20.70;99.90;;;;;;5013908;28;20216;-79
2022/07/22 08:35:50;;;;;;;913.40;828.22;;;20.70;99.90;;;;;;5033357;28;20201;-79
2022/07/22 08:38:17;;;;;;;918.15;832.80;;;20.70;99.90;;;;;;5053911;28;20216;-79
2022/07/22 08:40:44;;;;;;;910.70;825.53;;;20.70;99.90;;;;;;5034786;28;20211;-79
2022/07/22 08:43:10;;;;;;;912.95;827.88;;;20.70;99.90;;;;;;5038007;28;20213;-80
2022/07/22 08:45:37;;;;;;;904.45;819.47;;;20.70;99.90;;;;;;5044096;28;20669;-79
2022/07/22 08:48:06;;;;;;;898.47;813.47;;;20.70;99.90;;;;;;5030216;28;20200;-79
2022/07/22 08:50:33;;;;;;;907.10;822.30;;;20.70;99.90;;;;;;5053394;28;20207;-80
2022/07/22 08:52:59;;;;;;;906.05;821.28;;;20.70;99.90;;;;;;5036578;28;20205;-79
2022/07/22 08:55:26;;;;;;;908.60;823.72;;;20.70;99.90;;;;;;5021293;28;20662;-80
2022/07/22 08:57:53;;;;;;;890.08;805.85;;;20.70;99.90;;;;;;5033637;28;20231;-79
2022/07/22 09:00:22;;;;;;;908.17;823.08;;;20.70;99.90;;;;;;5023343;28;20856;-80
2022/07/22 09:02:49;;;;;;;907.63;823.05;;;20.70;99.90;;;;;;5015861;28;20227;-80
2022/07/22 09:05:18;;;;;;;904.97;820.17;;;20.70;99.90;;;;;;5038665;28;20201;-80
2022/07/22 09:07:46;;;;;;;898.53;813.78;;;20.70;99.90;;;;;;5035424;28;20199;-80
2022/07/22 09:10:17;;;;;;;906.05;821.05;;;20.70;99.90;;;;;;5022886;28;20229;-80
2022/07/22 09:12:55;;;;;;;904.22;819.15;;;20.80;99.90;;;;;;5025159;28;21894;-80
2022/07/22 09:15:28;;;;;;;908.80;823.90;;;20.80;99.90;;;;;;5028777;28;20212;-80
2022/07/22 09:17:55;;;;;;;915.80;830.72;;;20.80;99.90;;;;;;5034158;28;20320;-81
2022/07/22 09:20:25;;;;;;;902.88;818.15;;;20.80;99.90;;;;;;5028166;28;20203;-81
2022/07/22 09:22:52;;;;;;;914.65;829.58;;;20.80;99.90;;;;;;5015222;28;20222;-81
2022/07/22 09:25:23;;;;;;;898.33;813.63;;;20.80;99.90;;;;;;5024230;28;20637;-81
2022/07/22 09:27:51;;;;;;;905.17;820.50;;;20.70;99.90;;;;;;5034454;28;20207;-80
2022/07/22 09:30:23;;;;;;;917.63;832.45;;;20.80;99.90;;;;;;5020896;28;20247;-82
2022/07/22 09:32:52;;;;;;;918.80;833.40;;;20.80;99.90;;;;;;5036748;28;20289;-81
2022/07/22 09:35:20;;;;;;;900.78;816.40;;;20.80;99.90;;;;;;5036883;28;20212;-81
2022/07/22 09:37:56;;;;;;;910.10;825.05;;;20.80;99.90;;;;;;5040260;28;20685;-80
2022/07/22 09:40:25;;;;;;;894.80;810.30;;;20.80;99.90;;;;;;5019543;28;20193;-80
2022/07/22 09:42:53;;;;;;;916.97;831.72;;;20.80;99.90;;;;;;5017878;28;20246;-81
2022/07/22 09:45:21;;;;;;;894.38;810.08;;;20.70;99.90;;;;;;5032009;28;20213;-81
2022/07/22 09:47:49;;;;;;;910.08;824.78;;;20.80;99.90;;;;;;5023581;28;20210;-81
2022/07/22 09:50:22;;;;;;;902.75;818.00;;;20.80;99.90;;;;;;5053421;28;20708;-82
2022/07/22 09:52:50;;;;;;;912.72;827.72;;;20.80;99.90;;;;;;5023556;28;20219;-81
2022/07/22 09:55:20;;;;;;;915.03;829.90;;;20.80;99.90;;;;;;5015909;28;20198;-81
2022/07/22 09:57:48;;;;;;;902.75;817.85;;;20.80;99.90;;;;;;5027417;28;20235;-82
2022/07/22 10:00:17;;;;;;;920.60;835.13;;;20.80;99.90;;;;;;5029356;28;20202;-82
2022/07/22 10:02:48;;;;;;;926.22;840.42;;;20.80;99.90;;;;;;5030283;28;20271;-82
2022/07/22 10:05:17;;;;;;;908.50;823.40;;;20.80;99.90;;;;;;5032078;28;20209;-82
2022/07/22 10:07:46;;;;;;;897.65;812.75;;;20.70;99.90;;;;;;5035519;28;20208;-82
2022/07/22 10:10:14;;;;;;;909.63;824.42;;;20.70;99.90;;;;;;5029469;28;20193;-81
2022/07/22 10:12:44;;;;;;;923.28;837.60;;;20.70;99.90;;;;;;5032112;28;20194;-81
2022/07/22 10:15:12;;;;;;;907.55;822.67;;;20.80;99.90;;;;;;5026640;28;20673;-80
2022/07/22 10:17:41;;;;;;;913.25;828.25;;;20.80;99.90;;;;;;5012426;28;20584;-80
2022/07/22 10:20:10;;;;;;;925.03;839.67;;;20.80;99.90;;;;;;5039216;28;20624;-80
2022/07/22 10:22:55;;;;;;;928.60;843.00;;;20.80;99.90;;;;;;5031005;28;20202;-81
2022/07/22 10:25:25;;;;;;;919.67;834.38;;;20.90;99.90;;;;;;5038521;28;20201;-80
2022/07/22 10:27:55;;;;;;;918.25;832.85;;;20.90;99.90;;;;;;5024989;28;20192;-80
2022/07/22 10:30:24;;;;;;;928.13;842.47;;;20.90;99.90;;;;;;5028905;28;20198;-81
2022/07/22 10:33:09;;;;;;;922.15;836.78;;;20.90;99.90;;;;;;5024655;28;20198;-80
2022/07/22 10:35:38;;;;;;;917.30;832.10;;;21.00;99.90;;;;;;5034311;28;20618;-80
2022/07/22 10:38:07;;;;;;;917.63;832.63;;;21.00;99.90;;;;;;5010968;28;20319;-81
2022/07/22 10:40:48;;;;;;;901.53;816.85;;;21.00;99.90;;;;;;5015672;28;20658;-81
2022/07/22 10:43:18;;;;;;;924.00;838.42;;;21.00;99.90;;;;;;5021116;28;20198;-80
2022/07/22 10:45:53;;;;;;;915.88;830.70;;;21.00;99.90;;;;;;5038427;28;20272;-80
2022/07/22 10:48:23;;;;;;;913.60;828.65;;;21.10;99.90;;;;;;5015933;28;20210;-80
2022/07/22 10:51:07;;;;;;;939.55;853.47;;;21.10;99.90;;;;;;5016969;28;20210;-80
2022/07/22 10:53:54;;;;;;;937.78;851.83;;;21.10;99.90;;;;;;5041542;28;20209;-80
2022/07/22 10:56:25;;;;;;;934.28;848.47;;;21.10;99.90;;;;;;5014431;28;20192;-80
2022/07/22 10:59:12;;;;;;;937.85;851.78;;;21.20;99.90;;;;;;5026754;28;20223;-80
2022/07/22 11:01:40;;;;;;;937.03;851.03;;;21.20;99.90;;;;;;5014826;28;20215;-80
2022/07/22 11:04:12;;;;;;;938.63;852.60;;;21.20;99.90;;;;;;5019775;28;20551;-80
2022/07/22 11:06:39;;;;;;;923.40;837.92;;;21.20;99.90;;;;;;5016466;28;20196;-80
2022/07/22 11:09:08;;;;;;;932.53;846.65;;;21.20;99.90;;;;;;5033584;28;20681;-80
2022/07/22 11:11:41;;;;;;;943.20;857.03;;;21.20;99.90;;;;;;5026313;28;20199;-80
2022/07/22 11:14:24;;;;;;;931.17;845.38;;;21.20;99.90;;;;;;5019496;28;20199;-80
2022/07/22 11:16:52;;;;;;;941.65;855.50;;;21.20;99.90;;;;;;5027344;28;20214;-80
2022/07/22 11:19:22;;;;;;;932.63;846.85;;;21.20;99.90;;;;;;5016460;28;20226;-79
2022/07/22 11:21:52;;;;;;;925.03;839.42;;;21.30;99.90;;;;;;5037203;28;20209;-80
2022/07/22 11:24:19;;;;;;;941.33;855.30;;;21.20;99.90;;;;;;5025187;28;20204;-80
2022/07/22 11:26:49;;;;;;;945.28;859.30;;;21.20;99.90;;;;;;5017322;28;20558;-80
2022/07/22 11:29:19;;;;;;;942.50;856.25;;;21.30;99.90;;;;;;5027700;28;20195;-79
2022/07/22 11:31:46;;;;;;;934.30;848.60;;;21.30;99.90;;;;;;5030586;28;20654;-80
2022/07/22 11:34:15;;;;;;;927.25;841.88;;;21.30;99.90;;;;;;5039812;28;20206;-79
2022/07/22 11:36:44;;;;;;;942.03;856.25;;;21.30;99.90;;;;;;5028742;28;20206;-80
2022/07/22 11:39:12;;;;;;;928.90;843.58;;;21.30;99.90;;;;;;5031962;28;20222;-80
2022/07/22 11:41:40;;;;;;;933.03;847.42;;;21.30;99.90;;;;;;5038500;28;20567;-80
2022/07/22 11:44:08;;;;;;;937.58;851.70;;;21.30;99.90;;;;;;5044011;28;20575;-79
2022/07/22 11:46:40;;;;;;;935.63;849.85;;;21.40;99.90;;;;;;5024101;28;20250;-79
2022/07/22 11:49:08;;;;;;;935.28;849.42;;;21.40;99.90;;;;;;5022284;28;20199;-80
2022/07/22 11:51:37;;;;;;;952.13;866.08;;;21.40;99.90;;;;;;5014845;28;20195;-80
2022/07/22 11:54:05;;;;;;;941.17;855.28;;;21.50;99.90;;;;;;5028346;28;20575;-80
2022/07/22 11:56:33;;;;;;;944.13;858.22;;;21.50;99.90;;;;;;5025859;28;20656;-80
2022/07/22 11:59:04;;;;;;;952.22;865.97;;;21.50;99.90;;;;;;5048526;28;20225;-81
2022/07/22 12:01:33;;;;;;;952.53;866.05;;;21.50;99.90;;;;;;5013256;28;20203;-79
2022/07/22 12:04:03;;;;;;;942.08;856.25;;;21.50;99.90;;;;;;5032574;28;20210;-80
2022/07/22 12:06:36;;;;;;;940.45;854.63;;;21.50;99.90;;;;;;5036977;28;20198;-79
2022/07/22 12:09:06;;;;;;;951.60;865.53;;;21.50;99.90;;;;;;5027835;28;20198;-79
2022/07/22 12:11:33;;;;;;;943.65;857.60;;;21.50;99.90;;;;;;5036662;28;20249;-78